sensor_id;sensor_type;location;lat;lon;timestamp;pressure;altitude;pressure_sealevel;temperature;humidity
61345;BME280;47216;42.656;23.232;2023-09-18T00:00:51;94400.06;;;16.62;74.41
61345;BME280;47216;42.656;23.232;2023-09-18T00:03:18;94383.75;;;16.55;nan
61345;BME280;47216;42.656;23.232;2023-09-18T00:05:45;94390.63;;;16.51;75.36
61345;BME280;47216;42.656;23.232;2023-09-18T00:08:13;94383.47;;;16.56;75.55
61345;BME280;47216;42.656;23.232;2023-09-18T00:10:42;94382.66;;;16.61;75.26
61345;BME280;47216;42.656;23.232;2023-09-18T00:13:09;94380.59;;;16.53;75.31
61345;BME280;47216;42.656;23.232;2023-09-18T00:15:35;94385.38;;;16.46;75.30
61345;BME280;47216;42.656;23.232;2023-09-18T00:18:05;94383.78;;;16.45;75.89
61345;BME280;47216;42.656;23.232;2023-09-18T00:20:31;94384.91;;;16.38;75.71
61345;BME280;47216;42.656;23.232;2023-09-18T00:22:58;94389.59;;;16.42;75.87
61345;BME280;47216;42.656;23.232;2023-09-18T00:25:25;94379.59;;;16.44;75.95
61345;BME280;47216;42.656;23.232;2023-09-18T00:27:53;94389.09;;;16.39;76.02
61345;BME280;47216;42.656;23.232;2023-09-18T00:30:19;94383.31;;;16.37;75.87
61345;BME280;47216;42.656;23.232;2023-09-18T00:32:46;94388.56;;;16.37;76.22
61345;BME280;47216;42.656;23.232;2023-09-18T00:35:15;94394.34;;;16.39;76.43
61345;BME280;47216;42.656;23.232;2023-09-18T00:37:42;94388.84;;;16.41;75.89
61345;BME280;47216;42.656;23.232;2023-09-18T00:40:10;94398.06;;;16.33;76.00
61345;BME280;47216;42.656;23.232;2023-09-18T00:42:37;94398.59;;;16.30;76.13
61345;BME280;47216;42.656;23.232;2023-09-18T00:45:06;94392.31;;;16.31;76.07
61345;BME280;47216;42.656;23.232;2023-09-18T00:47:33;94397.03;;;16.29;75.96
61345;BME280;47216;42.656;23.232;2023-09-18T00:50:03;94397.56;;;16.31;75.92
61345;BME280;47216;42.656;23.232;2023-09-18T00:52:31;94397.28;;;16.33;76.07
61345;BME280;47216;42.656;23.232;2023-09-18T00:54:59;94395.94;;;16.35;76.06
61345;BME280;47216;42.656;23.232;2023-09-18T00:57:27;94401.47;;;16.39;75.63
61345;BME280;47216;42.656;23.232;2023-09-18T00:59:54;94402.25;;;16.39;75.78
61345;BME280;47216;42.656;23.232;2023-09-18T01:02:23;94400.16;;;16.36;75.64
61345;BME280;47216;42.656;23.232;2023-09-18T01:04:50;94402.03;;;16.36;75.95
61345;BME280;47216;42.656;23.232;2023-09-18T01:07:16;94409.41;;;16.34;76.29
61345;BME280;47216;42.656;23.232;2023-09-18T01:09:43;94413.31;;;16.42;76.29
61345;BME280;47216;42.656;23.232;2023-09-18T01:12:17;94404.84;;;16.45;76.36
61345;BME280;47216;42.656;23.232;2023-09-18T01:14:50;94409.59;;;16.48;76.14
61345;BME280;47216;42.656;23.232;2023-09-18T01:17:20;94405.34;;;16.52;76.02
61345;BME280;47216;42.656;23.232;2023-09-18T01:19:48;94414.56;;;16.54;76.21
61345;BME280;47216;42.656;23.232;2023-09-18T01:22:16;94405.94;;;16.44;76.32
61345;BME280;47216;42.656;23.232;2023-09-18T01:24:45;94393.81;;;16.43;76.29
61345;BME280;47216;42.656;23.232;2023-09-18T01:27:14;94393.06;;;16.37;77.06
61345;BME280;47216;42.656;23.232;2023-09-18T01:29:42;94394.91;;;16.36;77.23
61345;BME280;47216;42.656;23.232;2023-09-18T01:32:09;94398.06;;;16.38;77.39
61345;BME280;47216;42.656;23.232;2023-09-18T01:34:40;94397.47;;;16.47;77.59
61345;BME280;47216;42.656;23.232;2023-09-18T01:37:09;94393.25;;;16.51;77.09
61345;BME280;47216;42.656;23.232;2023-09-18T01:39:37;94394.78;;;16.62;76.94
61345;BME280;47216;42.656;23.232;2023-09-18T01:42:06;94398.41;;;16.71;76.34
61345;BME280;47216;42.656;23.232;2023-09-18T01:44:35;94403.16;;;16.69;76.52
61345;BME280;47216;42.656;23.232;2023-09-18T01:47:04;94393.16;;;16.71;76.89
61345;BME280;47216;42.656;23.232;2023-09-18T01:49:33;94398.91;;;16.78;76.94
61345;BME280;47216;42.656;23.232;2023-09-18T01:52:00;94398.69;;;16.80;76.96
61345;BME280;47216;42.656;23.232;2023-09-18T01:54:27;94395.22;;;16.85;76.73
61345;BME280;47216;42.656;23.232;2023-09-18T01:56:54;94396.78;;;16.86;76.67
61345;BME280;47216;42.656;23.232;2023-09-18T01:59:23;94396.78;;;16.86;77.16
61345;BME280;47216;42.656;23.232;2023-09-18T02:01:51;94400.47;;;16.90;77.01
61345;BME280;47216;42.656;23.232;2023-09-18T02:04:18;94396.53;;;16.87;76.90
61345;BME280;47216;42.656;23.232;2023-09-18T02:06:46;94402.56;;;16.88;76.86
61345;BME280;47216;42.656;23.232;2023-09-18T02:09:13;94403.09;;;16.90;77.22
61345;BME280;47216;42.656;23.232;2023-09-18T02:11:41;94407.00;;;16.97;76.92
61345;BME280;47216;42.656;23.232;2023-09-18T02:14:09;94409.88;;;17.01;77.01
61345;BME280;47216;42.656;23.232;2023-09-18T02:16:38;94411.94;;;17.04;76.66
61345;BME280;47216;42.656;23.232;2023-09-18T02:19:06;94417.22;;;17.04;76.63
61345;BME280;47216;42.656;23.232;2023-09-18T02:21:33;94411.22;;;16.98;76.76
61345;BME280;47216;42.656;23.232;2023-09-18T02:24:00;94408.28;;;17.00;76.39
61345;BME280;47216;42.656;23.232;2023-09-18T02:26:28;94404.34;;;16.97;76.66
61345;BME280;47216;42.656;23.232;2023-09-18T02:28:58;94403.06;;;16.95;76.75
61345;BME280;47216;42.656;23.232;2023-09-18T02:31:25;94407.00;;;16.97;77.01
61345;BME280;47216;42.656;23.232;2023-09-18T02:33:53;94412.50;;;17.01;76.77
61345;BME280;47216;42.656;23.232;2023-09-18T02:36:20;94404.03;;;17.04;76.89
61345;BME280;47216;42.656;23.232;2023-09-18T02:38:47;94407.25;;;17.01;76.99
61345;BME280;47216;42.656;23.232;2023-09-18T02:41:14;94405.66;;;17.00;76.89
61345;BME280;47216;42.656;23.232;2023-09-18T02:43:40;94398.25;;;17.02;76.84
61345;BME280;47216;42.656;23.232;2023-09-18T02:46:08;94399.03;;;17.02;76.90
61345;BME280;47216;42.656;23.232;2023-09-18T02:48:35;94397.22;;;17.03;76.76
61345;BME280;47216;42.656;23.232;2023-09-18T02:51:03;94409.84;;;17.06;76.80
61345;BME280;47216;42.656;23.232;2023-09-18T02:53:30;94410.88;;;17.10;76.64
61345;BME280;47216;42.656;23.232;2023-09-18T02:55:58;94409.53;;;17.13;76.40
61345;BME280;47216;42.656;23.232;2023-09-18T02:58:26;94409.59;;;17.02;76.27
61345;BME280;47216;42.656;23.232;2023-09-18T03:00:55;94411.16;;;17.04;76.36
61345;BME280;47216;42.656;23.232;2023-09-18T03:03:22;94402.41;;;17.13;76.48
61345;BME280;47216;42.656;23.232;2023-09-18T03:05:49;94416.63;;;17.17;76.51
61345;BME280;47216;42.656;23.232;2023-09-18T03:08:17;94412.38;;;17.21;76.40
61345;BME280;47216;42.656;23.232;2023-09-18T03:10:44;94412.38;;;17.21;76.44
61345;BME280;47216;42.656;23.232;2023-09-18T03:13:13;94408.66;;;17.22;76.39
61345;BME280;47216;42.656;23.232;2023-09-18T03:15:44;94406.59;;;17.19;76.57
61345;BME280;47216;42.656;23.232;2023-09-18T03:18:11;94403.41;;;17.22;76.68
61345;BME280;47216;42.656;23.232;2023-09-18T03:20:38;94402.06;;;17.25;76.55
61345;BME280;47216;42.656;23.232;2023-09-18T03:23:05;94402.31;;;17.23;76.73
61345;BME280;47216;42.656;23.232;2023-09-18T03:25:33;94403.09;;;17.29;76.53
61345;BME280;47216;42.656;23.232;2023-09-18T03:28:00;94400.19;;;17.31;76.79
61345;BME280;47216;42.656;23.232;2023-09-18T03:30:26;94395.69;;;17.31;76.75
61345;BME280;47216;42.656;23.232;2023-09-18T03:32:53;94397.03;;;17.23;76.82
61345;BME280;47216;42.656;23.232;2023-09-18T03:35:20;94393.41;;;17.19;77.04
61345;BME280;47216;42.656;23.232;2023-09-18T03:37:49;94393.41;;;17.19;77.17
61345;BME280;47216;42.656;23.232;2023-09-18T03:40:17;94395.50;;;17.22;77.61
61345;BME280;47216;42.656;23.232;2023-09-18T03:42:45;94394.94;;;17.26;77.56
61345;BME280;47216;42.656;23.232;2023-09-18T03:45:12;94391.25;;;17.27;77.46
61345;BME280;47216;42.656;23.232;2023-09-18T03:47:40;94390.63;;;17.35;77.47
61345;BME280;47216;42.656;23.232;2023-09-18T03:50:08;94388.22;;;17.43;77.33
61345;BME280;47216;42.656;23.232;2023-09-18T03:52:35;94382.66;;;17.45;77.33
61345;BME280;47216;42.656;23.232;2023-09-18T03:55:02;94388.44;;;17.47;76.99
61345;BME280;47216;42.656;23.232;2023-09-18T03:57:29;94383.19;;;17.47;76.93
61345;BME280;47216;42.656;23.232;2023-09-18T03:59:57;94385.53;;;17.49;76.99
61345;BME280;47216;42.656;23.232;2023-09-18T04:02:24;94384.75;;;17.48;77.09
61345;BME280;47216;42.656;23.232;2023-09-18T04:04:53;94383.69;;;17.49;77.09
61345;BME280;47216;42.656;23.232;2023-09-18T04:07:20;94383.41;;;17.51;77.08
61345;BME280;47216;42.656;23.232;2023-09-18T04:09:47;94385.81;;;17.47;77.17
61345;BME280;47216;42.656;23.232;2023-09-18T04:12:14;94390.25;;;17.52;77.29
61345;BME280;47216;42.656;23.232;2023-09-18T04:14:41;94392.59;;;17.53;77.40
61345;BME280;47216;42.656;23.232;2023-09-18T04:17:09;94386.53;;;17.53;77.25
61345;BME280;47216;42.656;23.232;2023-09-18T04:19:36;94397.47;;;17.41;77.35
61345;BME280;47216;42.656;23.232;2023-09-18T04:22:03;94400.19;;;17.31;77.86
61345;BME280;47216;42.656;23.232;2023-09-18T04:24:30;94394.81;;;17.41;77.88
61345;BME280;47216;42.656;23.232;2023-09-18T04:26:56;94404.81;;;17.44;77.91
61345;BME280;47216;42.656;23.232;2023-09-18T04:29:23;94403.72;;;17.50;77.87
61345;BME280;47216;42.656;23.232;2023-09-18T04:31:50;94398.13;;;17.57;77.79
61345;BME280;47216;42.656;23.232;2023-09-18T04:34:20;94405.41;;;17.65;77.62
61345;BME280;47216;42.656;23.232;2023-09-18T04:36:47;94402.97;;;17.74;77.42
61345;BME280;47216;42.656;23.232;2023-09-18T04:39:14;94403.22;;;17.77;77.03
61345;BME280;47216;42.656;23.232;2023-09-18T04:41:41;94409.78;;;17.80;76.82
61345;BME280;47216;42.656;23.232;2023-09-18T04:44:07;94399.22;;;17.80;76.81
61345;BME280;47216;42.656;23.232;2023-09-18T04:46:35;94404.78;;;17.78;76.87
61345;BME280;47216;42.656;23.232;2023-09-18T04:49:02;94410.06;;;17.78;76.75
61345;BME280;47216;42.656;23.232;2023-09-18T04:51:31;94408.75;;;17.76;76.96
61345;BME280;47216;42.656;23.232;2023-09-18T04:53:58;94408.50;;;17.77;76.95
61345;BME280;47216;42.656;23.232;2023-09-18T04:56:25;94403.75;;;17.74;76.97
61345;BME280;47216;42.656;23.232;2023-09-18T04:58:52;94404.56;;;17.75;77.12
61345;BME280;47216;42.656;23.232;2023-09-18T05:01:19;94405.91;;;17.72;77.29
61345;BME280;47216;42.656;23.232;2023-09-18T05:03:46;94403.19;;;17.82;77.24
61345;BME280;47216;42.656;23.232;2023-09-18T05:06:15;94408.41;;;17.88;77.04
61345;BME280;47216;42.656;23.232;2023-09-18T05:08:44;94402.56;;;17.91;76.84
61345;BME280;47216;42.656;23.232;2023-09-18T05:11:10;94401.56;;;17.87;76.63
61345;BME280;47216;42.656;23.232;2023-09-18T05:13:37;94406.38;;;17.79;76.67
61345;BME280;47216;42.656;23.232;2023-09-18T05:16:04;94400.97;;;17.60;76.87
61345;BME280;47216;42.656;23.232;2023-09-18T05:18:31;94408.34;;;17.63;77.01
61345;BME280;47216;42.656;23.232;2023-09-18T05:20:58;94412.50;;;17.70;77.19
61345;BME280;47216;42.656;23.232;2023-09-18T05:23:24;94404.59;;;17.70;77.02
61345;BME280;47216;42.656;23.232;2023-09-18T05:25:52;94412.00;;;17.68;77.37
61345;BME280;47216;42.656;23.232;2023-09-18T05:28:19;94407.78;;;17.67;76.82
61345;BME280;47216;42.656;23.232;2023-09-18T05:30:46;94411.44;;;17.71;76.50
61345;BME280;47216;42.656;23.232;2023-09-18T05:33:13;94413.75;;;17.82;76.15
61345;BME280;47216;42.656;23.232;2023-09-18T05:35:40;94412.34;;;17.90;75.99
61345;BME280;47216;42.656;23.232;2023-09-18T05:38:08;94413.59;;;17.98;75.71
61345;BME280;47216;42.656;23.232;2023-09-18T05:40:35;94410.56;;;18.10;75.52
61345;BME280;47216;42.656;23.232;2023-09-18T05:43:03;94411.75;;;18.22;75.19
61345;BME280;47216;42.656;23.232;2023-09-18T05:45:30;94419.78;;;18.36;74.86
61345;BME280;47216;42.656;23.232;2023-09-18T05:47:58;94419.38;;;18.48;74.24
61345;BME280;47216;42.656;23.232;2023-09-18T05:50:29;94418.75;;;18.56;74.69
61345;BME280;47216;42.656;23.232;2023-09-18T05:52:57;94418.84;;;18.70;74.27
61345;BME280;47216;42.656;23.232;2023-09-18T05:55:26;94414.25;;;18.81;74.03
61345;BME280;47216;42.656;23.232;2023-09-18T05:57:53;94414.69;;;18.88;73.77
61345;BME280;47216;42.656;23.232;2023-09-18T06:00:21;94413.53;;;18.94;73.71
61345;BME280;47216;42.656;23.232;2023-09-18T06:02:48;94413.97;;;19.01;73.18
61345;BME280;47216;42.656;23.232;2023-09-18T06:05:16;94414.09;;;19.10;72.95
61345;BME280;47216;42.656;23.232;2023-09-18T06:07:47;94412.88;;;19.21;72.47
61345;BME280;47216;42.656;23.232;2023-09-18T06:10:13;94419.69;;;19.27;72.09
61345;BME280;47216;42.656;23.232;2023-09-18T06:12:40;94420.09;;;19.35;72.01
61345;BME280;47216;42.656;23.232;2023-09-18T06:15:08;94424.31;;;19.36;71.26
61345;BME280;47216;42.656;23.232;2023-09-18T06:17:37;94419.59;;;19.33;70.74
61345;BME280;47216;42.656;23.232;2023-09-18T06:20:05;94427.63;;;19.27;70.92
61345;BME280;47216;42.656;23.232;2023-09-18T06:22:36;94428.47;;;19.23;71.09
61345;BME280;47216;42.656;23.232;2023-09-18T06:25:03;94423.88;;;19.28;70.96
61345;BME280;47216;42.656;23.232;2023-09-18T06:27:30;94427.03;;;19.30;70.97
61345;BME280;47216;42.656;23.232;2023-09-18T06:29:59;94423.09;;;19.28;70.93
61345;BME280;47216;42.656;23.232;2023-09-18T06:32:26;94425.66;;;19.33;71.06
61345;BME280;47216;42.656;23.232;2023-09-18T06:34:54;94426.88;;;19.41;70.73
61345;BME280;47216;42.656;23.232;2023-09-18T06:37:23;94419.44;;;19.43;70.54
61345;BME280;47216;42.656;23.232;2023-09-18T06:39:50;94427.38;;;19.43;70.56
61345;BME280;47216;42.656;23.232;2023-09-18T06:42:16;94423.16;;;19.42;70.63
61345;BME280;47216;42.656;23.232;2023-09-18T06:44:43;94425.72;;;19.47;70.04
61345;BME280;47216;42.656;23.232;2023-09-18T06:47:10;94432.00;;;19.51;69.83
61345;BME280;47216;42.656;23.232;2023-09-18T06:49:37;94419.69;;;19.60;69.46
61345;BME280;47216;42.656;23.232;2023-09-18T06:52:05;94420.97;;;19.63;69.42
61345;BME280;47216;42.656;23.232;2023-09-18T06:54:32;94421.75;;;19.63;69.35
61345;BME280;47216;42.656;23.232;2023-09-18T06:56:58;94420.28;;;19.57;69.76
61345;BME280;47216;42.656;23.232;2023-09-18T06:59:25;94425.69;;;19.66;69.11
61345;BME280;47216;42.656;23.232;2023-09-18T07:01:52;94424.56;;;19.72;68.69
61345;BME280;47216;42.656;23.232;2023-09-18T07:04:18;94425.84;;;19.75;68.74
61345;BME280;47216;42.656;23.232;2023-09-18T07:06:45;94423.28;;;19.69;68.50
61345;BME280;47216;42.656;23.232;2023-09-18T07:09:14;94422.91;;;19.76;68.71
61345;BME280;47216;42.656;23.232;2023-09-18T07:11:40;94419.47;;;19.76;68.31
61345;BME280;47216;42.656;23.232;2023-09-18T07:14:07;94419.19;;;19.77;68.11
61345;BME280;47216;42.656;23.232;2023-09-18T07:16:34;94424.69;;;19.81;68.54
61345;BME280;47216;42.656;23.232;2023-09-18T07:19:02;94424.69;;;19.81;68.72
61345;BME280;47216;42.656;23.232;2023-09-18T07:21:30;94427.59;;;19.79;68.82
61345;BME280;47216;42.656;23.232;2023-09-18T07:23:56;94432.63;;;19.81;69.02
61345;BME280;47216;42.656;23.232;2023-09-18T07:26:25;94423.31;;;19.83;69.03
61345;BME280;47216;42.656;23.232;2023-09-18T07:28:51;94423.72;;;19.90;69.11
61345;BME280;47216;42.656;23.232;2023-09-18T07:31:18;94428.50;;;19.88;69.08
61345;BME280;47216;42.656;23.232;2023-09-18T07:33:45;94422.25;;;19.98;69.22
61345;BME280;47216;42.656;23.232;2023-09-18T07:36:12;94426.66;;;20.03;68.78
61345;BME280;47216;42.656;23.232;2023-09-18T07:38:40;94426.28;;;20.09;69.03
61345;BME280;47216;42.656;23.232;2023-09-18T07:41:08;94428.84;;;20.14;69.05
61345;BME280;47216;42.656;23.232;2023-09-18T07:43:36;94420.81;;;20.20;68.66
61345;BME280;47216;42.656;23.232;2023-09-18T07:46:04;94419.63;;;20.26;68.40
61345;BME280;47216;42.656;23.232;2023-09-18T07:48:31;94420.63;;;20.30;68.05
61345;BME280;47216;42.656;23.232;2023-09-18T07:50:58;94410.13;;;20.39;67.79
61345;BME280;47216;42.656;23.232;2023-09-18T07:53:24;94423.47;;;20.47;67.37
61345;BME280;47216;42.656;23.232;2023-09-18T07:55:56;94419.13;;;20.51;67.43
61345;BME280;47216;42.656;23.232;2023-09-18T07:58:24;94413.78;;;20.56;66.83
61345;BME280;47216;42.656;23.232;2023-09-18T08:00:54;94416.31;;;20.62;66.88
61345;BME280;47216;42.656;23.232;2023-09-18T08:03:21;94413.47;;;20.72;66.20
61345;BME280;47216;42.656;23.232;2023-09-18T08:05:49;94420.63;;;20.71;66.23
61345;BME280;47216;42.656;23.232;2023-09-18T08:08:16;94412.28;;;20.78;66.05
61345;BME280;47216;42.656;23.232;2023-09-18T08:10:45;94412.16;;;20.83;65.61
61345;BME280;47216;42.656;23.232;2023-09-18T08:13:12;94410.13;;;20.80;65.89
61345;BME280;47216;42.656;23.232;2023-09-18T08:15:39;94408.81;;;20.91;65.39
61345;BME280;47216;42.656;23.232;2023-09-18T08:18:07;94412.75;;;20.94;65.26
61345;BME280;47216;42.656;23.232;2023-09-18T08:20:34;94399.66;;;20.97;65.51
61345;BME280;47216;42.656;23.232;2023-09-18T08:23:03;94405.28;;;20.96;64.75
61345;BME280;47216;42.656;23.232;2023-09-18T08:25:30;94401.13;;;21.04;64.40
61345;BME280;47216;42.656;23.232;2023-09-18T08:27:57;94394.72;;;21.05;65.03
61345;BME280;47216;42.656;23.232;2023-09-18T08:30:24;94396.78;;;21.08;64.63
61345;BME280;47216;42.656;23.232;2023-09-18T08:32:51;94396.66;;;21.13;64.60
61345;BME280;47216;42.656;23.232;2023-09-18T08:35:19;94397.41;;;21.27;64.14
61345;BME280;47216;42.656;23.232;2023-09-18T08:37:47;94393.16;;;21.40;63.72
61345;BME280;47216;42.656;23.232;2023-09-18T08:40:14;94396.81;;;21.53;63.13
61345;BME280;47216;42.656;23.232;2023-09-18T08:42:46;94392.97;;;21.59;63.58
61345;BME280;47216;42.656;23.232;2023-09-18T08:45:20;94380.34;;;21.65;62.69
61345;BME280;47216;42.656;23.232;2023-09-18T08:47:49;94384.31;;;21.76;61.96
61345;BME280;47216;42.656;23.232;2023-09-18T08:50:19;94382.34;;;21.81;61.45
61345;BME280;47216;42.656;23.232;2023-09-18T08:52:47;94383.47;;;21.89;62.03
61345;BME280;47216;42.656;23.232;2023-09-18T08:55:14;94386.16;;;21.98;61.39
61345;BME280;47216;42.656;23.232;2023-09-18T08:57:42;94371.63;;;21.95;60.89
61345;BME280;47216;42.656;23.232;2023-09-18T09:00:11;94379.59;;;22.04;61.04
61345;BME280;47216;42.656;23.232;2023-09-18T09:02:41;94377.16;;;22.16;60.19
61345;BME280;47216;42.656;23.232;2023-09-18T09:05:08;94369.25;;;22.25;59.47
61345;BME280;47216;42.656;23.232;2023-09-18T09:07:36;94376.91;;;22.27;58.83
61345;BME280;47216;42.656;23.232;2023-09-18T09:10:04;94371.16;;;22.33;59.01
61345;BME280;47216;42.656;23.232;2023-09-18T09:12:52;94367.91;;;22.45;58.83
61345;BME280;47216;42.656;23.232;2023-09-18T09:15:20;94372.13;;;22.46;58.47
61345;BME280;47216;42.656;23.232;2023-09-18T09:17:47;94365.09;;;22.50;57.44
61345;BME280;47216;42.656;23.232;2023-09-18T09:20:15;94360.28;;;22.61;57.11
61345;BME280;47216;42.656;23.232;2023-09-18T09:22:45;94354.19;;;22.60;56.69
61345;BME280;47216;42.656;23.232;2023-09-18T09:25:22;94356.38;;;22.67;56.78
61345;BME280;47216;42.656;23.232;2023-09-18T09:27:49;94358.59;;;22.74;56.91
61345;BME280;47216;42.656;23.232;2023-09-18T09:30:19;94356.72;;;22.83;55.67
61345;BME280;47216;42.656;23.232;2023-09-18T09:32:48;94347.00;;;22.87;54.54
61345;BME280;47216;42.656;23.232;2023-09-18T09:35:20;94338.41;;;22.90;54.61
61345;BME280;47216;42.656;23.232;2023-09-18T09:37:49;94352.63;;;22.94;54.52
61345;BME280;47216;42.656;23.232;2023-09-18T09:40:19;94348.91;;;23.13;53.21
61345;BME280;47216;42.656;23.232;2023-09-18T09:42:46;94346.41;;;23.25;53.29
61345;BME280;47216;42.656;23.232;2023-09-18T09:45:14;94343.28;;;23.32;52.93
61345;BME280;47216;42.656;23.232;2023-09-18T09:47:42;94351.25;;;23.32;53.74
61345;BME280;47216;42.656;23.232;2023-09-18T09:50:10;94343.53;;;23.47;52.47
61345;BME280;47216;42.656;23.232;2023-09-18T09:52:42;94346.97;;;23.57;52.29
61345;BME280;47216;42.656;23.232;2023-09-18T09:55:22;94340.38;;;23.63;51.09
61345;BME280;47216;42.656;23.232;2023-09-18T09:57:51;94327.53;;;23.65;49.82
61345;BME280;47216;42.656;23.232;2023-09-18T10:00:18;94335.81;;;23.81;50.69
61345;BME280;47216;42.656;23.232;2023-09-18T10:02:57;94319.34;;;23.87;50.70
61345;BME280;47216;42.656;23.232;2023-09-18T10:05:27;94318.69;;;23.90;50.16
61345;BME280;47216;42.656;23.232;2023-09-18T10:07:57;94325.09;;;23.98;50.48
61345;BME280;47216;42.656;23.232;2023-09-18T10:10:29;94322.56;;;24.02;49.63
61345;BME280;47216;42.656;23.232;2023-09-18T10:13:01;94326.16;;;24.06;50.05
61345;BME280;47216;42.656;23.232;2023-09-18T10:15:32;94332.13;;;24.03;48.98
61345;BME280;47216;42.656;23.232;2023-09-18T10:18:05;94320.06;;;24.05;48.92
61345;BME280;47216;42.656;23.232;2023-09-18T10:20:37;94325.25;;;24.02;49.18
61345;BME280;47216;42.656;23.232;2023-09-18T10:23:07;94320.19;;;24.09;49.54
61345;BME280;47216;42.656;23.232;2023-09-18T10:25:38;94312.28;;;24.21;49.31
61345;BME280;47216;42.656;23.232;2023-09-18T10:28:07;94305.53;;;24.24;50.21
61345;BME280;47216;42.656;23.232;2023-09-18T10:30:34;94305.66;;;24.27;49.47
61345;BME280;47216;42.656;23.232;2023-09-18T10:33:03;94305.44;;;24.41;49.75
61345;BME280;47216;42.656;23.232;2023-09-18T10:35:33;94300.53;;;24.52;48.84
61345;BME280;47216;42.656;23.232;2023-09-18T10:38:02;94298.69;;;24.44;48.47
61345;BME280;47216;42.656;23.232;2023-09-18T10:40:30;94292.56;;;24.43;49.06
61345;BME280;47216;42.656;23.232;2023-09-18T10:42:59;94288.00;;;24.44;48.45
61345;BME280;47216;42.656;23.232;2023-09-18T10:45:29;94293.13;;;24.58;48.58
61345;BME280;47216;42.656;23.232;2023-09-18T10:47:57;94285.72;;;24.63;47.33
61345;BME280;47216;42.656;23.232;2023-09-18T10:50:24;94285.53;;;24.68;47.61
61345;BME280;47216;42.656;23.232;2023-09-18T10:52:51;94291.16;;;24.67;46.86
61345;BME280;47216;42.656;23.232;2023-09-18T10:55:21;94286.50;;;24.64;47.24
61345;BME280;47216;42.656;23.232;2023-09-18T10:57:53;94276.19;;;24.74;47.10
61345;BME280;47216;42.656;23.232;2023-09-18T11:00:25;94273.59;;;24.87;46.33
61345;BME280;47216;42.656;23.232;2023-09-18T11:02:56;94284.75;;;24.89;47.40
61345;BME280;47216;42.656;23.232;2023-09-18T11:05:35;94268.97;;;24.96;46.53
61345;BME280;47216;42.656;23.232;2023-09-18T11:08:27;94269.53;;;25.02;46.95
61345;BME280;47216;42.656;23.232;2023-09-18T11:10:56;94265.66;;;24.99;46.19
61345;BME280;47216;42.656;23.232;2023-09-18T11:13:34;94260.56;;;25.06;46.27
61345;BME280;47216;42.656;23.232;2023-09-18T11:16:14;94260.75;;;25.01;46.02
61345;BME280;47216;42.656;23.232;2023-09-18T11:18:40;94266.84;;;24.89;46.88
61345;BME280;47216;42.656;23.232;2023-09-18T11:21:08;94264.09;;;24.98;46.01
61345;BME280;47216;42.656;23.232;2023-09-18T11:23:36;94253.91;;;25.12;46.14
61345;BME280;47216;42.656;23.232;2023-09-18T11:26:04;94254.69;;;25.13;45.66
61345;BME280;47216;42.656;23.232;2023-09-18T11:28:31;94263.00;;;25.11;45.75
61345;BME280;47216;42.656;23.232;2023-09-18T11:30:58;94256.84;;;25.20;46.00
61345;BME280;47216;42.656;23.232;2023-09-18T11:33:34;94250.31;;;25.29;45.16
61345;BME280;47216;42.656;23.232;2023-09-18T11:36:06;94242.75;;;25.31;45.83
61345;BME280;47216;42.656;23.232;2023-09-18T11:38:51;94240.22;;;25.35;45.34
61345;BME280;47216;42.656;23.232;2023-09-18T11:41:25;94236.09;;;25.38;45.06
61345;BME280;47216;42.656;23.232;2023-09-18T11:43:52;94230.63;;;25.46;45.60
61345;BME280;47216;42.656;23.232;2023-09-18T11:46:20;94236.78;;;25.47;45.59
61345;BME280;47216;42.656;23.232;2023-09-18T11:48:49;94235.66;;;25.60;45.32
61345;BME280;47216;42.656;23.232;2023-09-18T11:51:23;94230.91;;;25.66;45.31
61345;BME280;47216;42.656;23.232;2023-09-18T11:53:53;94227.09;;;25.67;45.16
61345;BME280;47216;42.656;23.232;2023-09-18T11:56:21;94226.09;;;25.71;45.07
61345;BME280;47216;42.656;23.232;2023-09-18T11:58:49;94227.56;;;25.81;44.32
61345;BME280;47216;42.656;23.232;2023-09-18T12:01:17;94230.25;;;25.81;44.49
61345;BME280;47216;42.656;23.232;2023-09-18T12:03:44;94233.69;;;25.94;45.39
61345;BME280;47216;42.656;23.232;2023-09-18T12:06:15;94231.59;;;25.99;44.11
61345;BME280;47216;42.656;23.232;2023-09-18T12:08:42;94229.56;;;25.96;44.03
61345;BME280;47216;42.656;23.232;2023-09-18T12:11:09;94226.13;;;25.84;44.02
61345;BME280;47216;42.656;23.232;2023-09-18T12:13:42;94230.34;;;25.97;44.26
61345;BME280;47216;42.656;23.232;2023-09-18T12:16:08;94227.69;;;25.97;43.96
61345;BME280;47216;42.656;23.232;2023-09-18T12:18:35;94217.88;;;26.01;43.95
61345;BME280;47216;42.656;23.232;2023-09-18T12:21:06;94215.97;;;26.14;43.46
61345;BME280;47216;42.656;23.232;2023-09-18T12:23:38;94212.53;;;26.13;43.39
61345;BME280;47216;42.656;23.232;2023-09-18T12:26:05;94219.31;;;26.23;43.02
61345;BME280;47216;42.656;23.232;2023-09-18T12:28:35;94207.53;;;26.12;43.08
61345;BME280;47216;42.656;23.232;2023-09-18T12:31:02;94209.75;;;26.10;43.21
61345;BME280;47216;42.656;23.232;2023-09-18T12:33:33;94214.63;;;26.20;43.59
61345;BME280;47216;42.656;23.232;2023-09-18T12:36:03;94220.97;;;26.15;43.51
61345;BME280;47216;42.656;23.232;2023-09-18T12:38:30;94206.47;;;26.29;43.08
61345;BME280;47216;42.656;23.232;2023-09-18T12:40:59;94211.25;;;26.35;43.34
61345;BME280;47216;42.656;23.232;2023-09-18T12:43:35;94205.00;;;26.44;43.38
61345;BME280;47216;42.656;23.232;2023-09-18T12:46:04;94202.53;;;26.51;43.16
61345;BME280;47216;42.656;23.232;2023-09-18T12:48:31;94196.50;;;26.54;42.49
61345;BME280;47216;42.656;23.232;2023-09-18T12:51:04;94202.84;;;26.61;42.74
61345;BME280;47216;42.656;23.232;2023-09-18T12:53:33;94185.44;;;26.68;43.10
61345;BME280;47216;42.656;23.232;2023-09-18T12:56:09;94188.03;;;26.80;43.52